createdAt,value
2022-10-13T00:01:22.222Z,16.73
2022-10-13T00:03:50.875Z,16.25
2022-10-13T00:06:24.522Z,16.37
2022-10-13T00:08:53.023Z,17.02
2022-10-13T00:11:23.832Z,17.39
2022-10-13T00:13:52.659Z,16.81
2022-10-13T00:16:21.821Z,16.98
2022-10-13T00:18:50.326Z,16.82
2022-10-13T00:21:22.145Z,17.14
2022-10-13T00:23:51.852Z,16.70
2022-10-13T00:26:24.223Z,17.56
2022-10-13T00:28:53.197Z,16.90
2022-10-13T00:31:32.199Z,17.27
2022-10-13T00:34:01.602Z,16.76
2022-10-13T00:36:30.563Z,16.78
2022-10-13T00:38:58.778Z,17.28
2022-10-13T00:41:26.767Z,16.71
2022-10-13T00:43:54.658Z,16.65
2022-10-13T00:46:24.307Z,16.53
2022-10-13T00:49:01.340Z,17.15
2022-10-13T00:51:32.947Z,16.61
2022-10-13T00:54:03.041Z,17.07
2022-10-13T00:56:31.774Z,16.68
2022-10-13T00:59:01.156Z,16.09
2022-10-13T01:01:29.111Z,16.20
2022-10-13T01:03:57.200Z,15.75
2022-10-13T01:06:25.376Z,16.36
2022-10-13T01:08:54.766Z,15.83
2022-10-13T01:11:48.562Z,15.09
2022-10-13T01:14:30.437Z,15.27
2022-10-13T01:17:13.775Z,15.05
2022-10-13T01:20:18.286Z,14.91
2022-10-13T01:22:46.310Z,14.30
2022-10-13T01:25:35.004Z,14.44
2022-10-13T01:28:50.249Z,14.24
2022-10-13T01:31:29.249Z,14.21
2022-10-13T01:34:15.746Z,13.90
2022-10-13T01:37:03.880Z,13.70
2022-10-13T01:39:43.485Z,13.80
2022-10-13T01:42:25.766Z,13.35
2022-10-13T01:44:59.948Z,12.84
2022-10-13T01:47:31.870Z,13.05
2022-10-13T01:50:00.749Z,13.38
2022-10-13T01:52:35.978Z,13.40
2022-10-13T01:55:10.371Z,13.31
2022-10-13T01:57:44.191Z,13.55
2022-10-13T02:00:18.265Z,13.42
2022-10-13T02:03:06.907Z,13.38
2022-10-13T02:05:49.278Z,13.55
2022-10-13T02:08:30.758Z,13.37
2022-10-13T02:11:14.129Z,13.25
2022-10-13T02:13:50.191Z,13.60
2022-10-13T02:16:28.910Z,12.97
2022-10-13T02:18:58.657Z,13.60
2022-10-13T02:21:26.772Z,14.37
2022-10-13T02:23:55.981Z,13.53
2022-10-13T02:26:25.200Z,13.30
2022-10-13T02:29:09.643Z,13.54
2022-10-13T02:31:38.682Z,13.07
2022-10-13T02:34:07.200Z,13.33
2022-10-13T02:36:38.079Z,13.99
2022-10-13T02:39:08.119Z,13.73
2022-10-13T02:41:36.349Z,14.71
2022-10-13T02:44:04.818Z,14.73
2022-10-13T02:46:42.172Z,14.73
2022-10-13T02:49:10.814Z,14.45
2022-10-13T02:51:40.458Z,15.57
2022-10-13T02:54:08.680Z,14.80
2022-10-13T02:56:36.743Z,14.50
2022-10-13T02:59:04.734Z,15.35
2022-10-13T03:01:33.108Z,14.90
2022-10-13T03:04:01.047Z,14.71
2022-10-13T03:06:29.083Z,15.18
2022-10-13T03:08:57.029Z,15.32
2022-10-13T03:11:25.119Z,15.21
2022-10-13T03:13:53.100Z,15.53
2022-10-13T03:16:21.103Z,15.75
2022-10-13T03:18:49.071Z,15.36
2022-10-13T03:21:17.079Z,15.52
2022-10-13T03:23:45.196Z,15.61
2022-10-13T03:26:13.150Z,15.35
2022-10-13T03:28:41.293Z,15.25
2022-10-13T03:31:11.188Z,15.54
2022-10-13T03:33:40.169Z,15.60
2022-10-13T03:36:08.728Z,15.51
2022-10-13T03:38:37.166Z,14.71
2022-10-13T03:41:14.225Z,14.95
2022-10-13T03:43:43.955Z,15.31
2022-10-13T03:46:14.643Z,15.02
2022-10-13T03:48:42.778Z,15.16
2022-10-13T03:51:13.308Z,15.34
2022-10-13T03:53:47.341Z,15.24
2022-10-13T03:56:18.613Z,14.87
2022-10-13T03:58:55.437Z,15.36
2022-10-13T04:01:25.730Z,14.84
2022-10-13T04:03:55.916Z,14.70
2022-10-13T04:06:26.142Z,14.69
2022-10-13T04:08:54.747Z,14.27
2022-10-13T04:11:22.924Z,14.94
2022-10-13T04:13:57.662Z,14.56
2022-10-13T04:16:30.320Z,14.90
2022-10-13T04:19:01.350Z,14.35
2022-10-13T04:21:31.038Z,14.19
2022-10-13T04:23:59.515Z,14.84
2022-10-13T04:26:29.951Z,14.56
2022-10-13T04:28:59.910Z,14.56
2022-10-13T04:31:29.828Z,14.57
2022-10-13T04:33:58.126Z,14.57
2022-10-13T04:36:26.962Z,14.75
2022-10-13T04:38:55.478Z,14.66
2022-10-13T04:41:23.869Z,14.70
2022-10-13T04:43:52.808Z,14.62
2022-10-13T04:46:26.387Z,14.85
2022-10-13T04:48:56.530Z,15.20
2022-10-13T04:51:30.449Z,15.29
2022-10-13T04:54:01.144Z,14.80
2022-10-13T04:56:29.551Z,15.07
2022-10-13T04:59:05.780Z,14.82
2022-10-13T05:01:34.630Z,15.47
2022-10-13T05:04:03.856Z,14.90
2022-10-13T05:06:58.895Z,15.09
2022-10-13T05:09:27.727Z,15.10
2022-10-13T05:11:55.712Z,15.49
2022-10-13T05:14:23.813Z,15.67
2022-10-13T05:16:51.702Z,15.91
2022-10-13T05:19:20.342Z,15.28
2022-10-13T05:21:50.283Z,15.53
2022-10-13T05:24:20.684Z,15.54
2022-10-13T05:26:50.679Z,16.48
2022-10-13T05:29:18.919Z,16.70
2022-10-13T05:31:47.110Z,16.54
2022-10-13T05:34:14.992Z,16.34
2022-10-13T05:36:42.928Z,15.66
2022-10-13T05:39:10.886Z,15.54
2022-10-13T05:41:39.500Z,15.52
2022-10-13T05:44:14.843Z,15.85
2022-10-13T05:46:54.386Z,16.09
2022-10-13T05:49:22.442Z,15.75
2022-10-13T05:51:54.858Z,16.12
2022-10-13T05:54:31.323Z,16.34
2022-10-13T05:57:13.588Z,15.64
2022-10-13T06:00:03.582Z,15.80
2022-10-13T06:02:50.078Z,17.98
2022-10-13T06:05:20.091Z,17.00
2022-10-13T06:07:51.756Z,16.32
2022-10-13T06:10:19.920Z,16.80
2022-10-13T06:12:47.838Z,16.80
2022-10-13T06:15:15.887Z,16.85
2022-10-13T06:17:43.788Z,16.73
2022-10-13T06:20:11.789Z,17.02
2022-10-13T06:22:39.971Z,17.12
2022-10-13T06:25:08.789Z,16.57
2022-10-13T06:27:36.677Z,16.45
2022-10-13T06:30:04.901Z,16.98
2022-10-13T06:32:33.020Z,17.01
2022-10-13T06:35:01.008Z,16.92
2022-10-13T06:37:28.917Z,17.63
2022-10-13T06:39:56.845Z,17.85
2022-10-13T06:42:24.859Z,17.23
2022-10-13T06:45:10.170Z,18.42
2022-10-13T06:47:41.318Z,18.69
2022-10-13T06:50:09.703Z,18.06
2022-10-13T06:52:38.719Z,17.70
2022-10-13T06:55:06.866Z,18.48
2022-10-13T06:57:35.918Z,17.74
2022-10-13T07:00:07.179Z,18.77
2022-10-13T07:02:35.219Z,18.91
2022-10-13T07:05:03.305Z,17.60
2022-10-13T07:07:31.195Z,17.24
2022-10-13T07:09:59.282Z,16.60
2022-10-13T07:12:27.272Z,16.67
2022-10-13T07:14:55.244Z,16.30
2022-10-13T07:17:23.403Z,16.09
2022-10-13T07:19:55.675Z,16.02
2022-10-13T07:22:26.811Z,16.54
2022-10-13T07:24:54.758Z,16.78
2022-10-13T07:27:23.244Z,17.76
2022-10-13T07:29:51.525Z,17.00
2022-10-13T07:32:19.534Z,17.52
2022-10-13T07:34:47.640Z,16.99
2022-10-13T07:37:15.533Z,17.26
2022-10-13T07:39:43.454Z,17.58
2022-10-13T07:42:11.402Z,17.99
2022-10-13T07:44:39.339Z,18.45
2022-10-13T07:47:07.516Z,17.95
2022-10-13T07:49:35.677Z,17.91
2022-10-13T07:52:05.181Z,18.88
2022-10-13T07:54:33.149Z,18.92
2022-10-13T07:57:01.326Z,18.76
2022-10-13T07:59:29.572Z,18.40
2022-10-13T08:01:57.798Z,18.60
2022-10-13T08:04:28.685Z,17.73
2022-10-13T08:06:56.961Z,17.85
2022-10-13T08:09:26.062Z,17.67
2022-10-13T08:11:58.918Z,17.97
2022-10-13T08:14:29.813Z,17.22
2022-10-13T08:16:58.256Z,17.70
2022-10-13T08:19:26.684Z,17.40
2022-10-13T08:21:59.972Z,17.55
2022-10-13T08:24:28.595Z,18.05
2022-10-13T08:26:56.665Z,18.93
2022-10-13T08:29:24.847Z,18.79
2022-10-13T08:31:53.992Z,18.13
2022-10-13T08:34:23.244Z,19.33
2022-10-13T08:36:54.365Z,18.04
2022-10-13T08:39:24.662Z,17.99
2022-10-13T08:41:53.400Z,17.14
2022-10-13T08:47:36.507Z,17.14
2022-10-13T08:50:14.051Z,17.53
2022-10-13T08:53:21.840Z,17.47
2022-10-13T08:55:56.964Z,17.29
2022-10-13T08:58:28.951Z,16.79
2022-10-13T09:01:09.359Z,17.16
2022-10-13T09:03:54.380Z,17.69
2022-10-13T09:06:31.806Z,16.90
2022-10-13T09:09:03.886Z,17.17
2022-10-13T09:11:36.835Z,18.89
2022-10-13T09:14:11.189Z,19.96
2022-10-13T09:16:44.692Z,19.26
2022-10-13T09:19:25.686Z,19.33
2022-10-13T09:21:56.026Z,19.48
2022-10-13T09:24:26.424Z,18.53
2022-10-13T09:27:11.643Z,18.63
2022-10-13T09:29:41.744Z,22.67
2022-10-13T09:32:18.207Z,27.80
2022-10-13T09:34:47.486Z,30.76
2022-10-13T09:37:25.809Z,30.63
2022-10-13T09:40:02.262Z,28.58
2022-10-13T09:42:32.031Z,26.32
2022-10-13T09:45:15.075Z,24.86
2022-10-13T09:47:52.367Z,24.10
2022-10-13T09:50:27.363Z,24.94
2022-10-13T09:53:38.227Z,25.37
2022-10-13T09:56:34.144Z,25.68
2022-10-13T09:59:16.031Z,25.66
2022-10-13T10:01:46.565Z,27.50
2022-10-13T10:04:21.791Z,27.47
2022-10-13T10:06:49.980Z,28.99
2022-10-13T10:09:40.014Z,27.22
2022-10-13T10:12:16.028Z,26.51
2022-10-13T10:14:44.249Z,27.14
2022-10-13T10:17:12.085Z,26.63
2022-10-13T10:20:17.323Z,26.87
2022-10-13T10:23:03.040Z,24.21
2022-10-13T10:25:51.311Z,21.90
2022-10-13T10:28:25.013Z,20.67
2022-10-13T10:31:12.517Z,20.44
2022-10-13T10:33:59.657Z,19.35
2022-10-13T10:36:43.510Z,18.71
2022-10-13T10:39:14.351Z,17.57
2022-10-13T10:41:56.065Z,17.54
2022-10-13T10:44:33.609Z,17.57
2022-10-13T10:47:11.550Z,18.01
2022-10-13T10:49:39.864Z,17.29
2022-10-13T10:52:11.543Z,16.47
2022-10-13T10:55:15.479Z,15.05
2022-10-13T10:58:08.055Z,16.30
2022-10-13T11:00:46.012Z,14.96
2022-10-13T11:03:23.253Z,15.34
2022-10-13T11:05:57.245Z,14.48
2022-10-13T11:08:28.977Z,15.58
2022-10-13T11:11:37.758Z,14.85
2022-10-13T11:14:10.980Z,15.06
2022-10-13T11:16:42.530Z,15.09
2022-10-13T11:19:35.370Z,14.60
2022-10-13T11:22:03.218Z,14.88
2022-10-13T11:24:41.659Z,16.40
2022-10-13T11:27:14.925Z,15.78
2022-10-13T11:29:55.070Z,16.28
2022-10-13T11:32:26.226Z,15.79
2022-10-13T11:35:02.925Z,15.04
2022-10-13T11:38:06.707Z,14.47
2022-10-13T11:41:03.798Z,14.86
2022-10-13T11:44:08.439Z,15.68
2022-10-13T11:46:54.759Z,15.07
2022-10-13T11:49:46.589Z,14.66
2022-10-13T11:52:29.775Z,14.20
2022-10-13T11:55:25.842Z,14.23
2022-10-13T11:58:10.059Z,14.89
2022-10-13T12:00:38.250Z,14.37
2022-10-13T12:03:06.294Z,13.52
2022-10-13T12:05:34.287Z,13.38
2022-10-13T12:08:04.858Z,15.73
2022-10-13T12:10:36.586Z,17.54
2022-10-13T12:13:07.487Z,16.35
2022-10-13T12:15:38.798Z,15.97
2022-10-13T12:18:30.038Z,14.84
2022-10-13T12:21:00.435Z,14.54
2022-10-13T12:23:29.345Z,18.00
2022-10-13T12:25:58.791Z,17.16
2022-10-13T12:28:30.997Z,16.51
2022-10-13T12:31:00.335Z,15.74
2022-10-13T12:33:32.338Z,15.06
2022-10-13T12:36:17.466Z,14.83
2022-10-13T12:38:51.759Z,13.88
2022-10-13T12:41:32.981Z,12.73
2022-10-13T12:44:04.038Z,12.19
2022-10-13T12:46:35.698Z,11.81
2022-10-13T12:49:07.039Z,12.22
2022-10-13T12:51:37.247Z,12.78
2022-10-13T12:54:19.237Z,13.16
2022-10-13T12:56:48.735Z,12.55
2022-10-13T12:59:20.471Z,12.01
2022-10-13T13:01:54.797Z,12.83
2022-10-13T13:04:22.611Z,11.92
2022-10-13T13:06:59.335Z,12.33
2022-10-13T13:09:28.770Z,13.13
2022-10-13T13:12:08.527Z,12.94
2022-10-13T13:14:41.976Z,12.62
2022-10-13T13:17:38.594Z,12.63
2022-10-13T13:20:31.045Z,12.74
2022-10-13T13:22:59.802Z,12.63
2022-10-13T13:25:27.950Z,13.10
2022-10-13T13:27:55.912Z,14.19
2022-10-13T13:30:24.156Z,12.76
2022-10-13T13:32:52.111Z,11.71
2022-10-13T13:35:20.298Z,12.53
2022-10-13T13:37:51.011Z,16.22
2022-10-13T13:40:27.566Z,14.84
2022-10-13T13:42:55.923Z,12.65
2022-10-13T13:45:27.321Z,12.26
2022-10-13T13:48:00.382Z,13.69
2022-10-13T13:50:34.460Z,13.62
2022-10-13T13:53:03.056Z,14.35
2022-10-13T13:55:31.653Z,14.98
2022-10-13T13:57:59.647Z,15.10
2022-10-13T14:00:27.592Z,13.11
2022-10-13T14:02:57.733Z,13.09
2022-10-13T14:05:25.836Z,13.70
2022-10-13T14:07:55.405Z,13.60
2022-10-13T14:10:24.982Z,13.05
2022-10-13T14:12:53.192Z,13.10
2022-10-13T14:15:23.432Z,13.16
2022-10-13T14:17:54.646Z,12.94
2022-10-13T14:20:22.806Z,13.19
2022-10-13T14:22:51.235Z,14.80
2022-10-13T14:25:19.695Z,13.44
2022-10-13T14:27:47.635Z,12.92
2022-10-13T14:30:16.139Z,14.94
2022-10-13T14:32:44.257Z,15.49
2022-10-13T14:35:12.593Z,15.55
2022-10-13T14:37:40.721Z,15.42
2022-10-13T14:40:09.161Z,14.58
2022-10-13T14:42:38.964Z,13.83
2022-10-13T14:45:08.349Z,13.69
2022-10-13T14:47:36.229Z,14.54
2022-10-13T14:50:04.805Z,13.90
2022-10-13T14:52:32.680Z,13.96
2022-10-13T14:55:00.630Z,13.15
2022-10-13T14:57:28.927Z,16.14
2022-10-13T15:00:00.864Z,17.37
2022-10-13T15:02:30.200Z,15.91
2022-10-13T15:04:58.502Z,15.47
2022-10-13T15:07:26.436Z,15.83
2022-10-13T15:10:04.899Z,15.20
2022-10-13T15:12:34.406Z,14.43
2022-10-13T15:15:02.523Z,14.00
2022-10-13T15:17:31.145Z,15.92
2022-10-13T15:19:59.226Z,16.40
2022-10-13T15:22:27.245Z,15.86
2022-10-13T15:24:55.309Z,24.41
2022-10-13T15:27:23.913Z,24.84
2022-10-13T15:29:51.836Z,19.53
2022-10-13T15:32:20.449Z,19.60
2022-10-13T15:34:55.942Z,16.43
2022-10-13T15:37:23.918Z,15.52
2022-10-13T15:39:56.860Z,19.48
2022-10-13T15:42:25.423Z,18.62
2022-10-13T15:45:10.461Z,17.35
2022-10-13T15:47:39.303Z,15.57
2022-10-13T15:50:09.020Z,15.43
2022-10-13T15:52:40.683Z,15.92
2022-10-13T15:55:11.565Z,15.68
2022-10-13T15:57:39.898Z,15.70
2022-10-13T16:00:09.797Z,16.91
2022-10-13T16:02:41.478Z,29.69
2022-10-13T16:05:12.551Z,37.50
2022-10-13T16:07:41.537Z,24.29
2022-10-13T16:10:12.486Z,18.65
2022-10-13T16:12:44.407Z,17.19
2022-10-13T16:15:18.092Z,17.98
2022-10-13T16:17:46.342Z,17.07
2022-10-13T16:20:14.657Z,17.24
2022-10-13T16:22:42.571Z,17.67
2022-10-13T16:25:12.248Z,17.24
2022-10-13T16:27:44.070Z,17.52
2022-10-13T16:30:12.888Z,17.74
2022-10-13T16:32:41.459Z,18.32
2022-10-13T16:35:09.534Z,17.45
2022-10-13T16:37:37.492Z,17.04
2022-10-13T16:40:05.786Z,17.52
2022-10-13T16:42:34.952Z,16.73
2022-10-13T16:45:02.928Z,17.13
2022-10-13T16:47:31.060Z,18.06
2022-10-13T16:49:59.040Z,18.16
2022-10-13T16:52:26.895Z,19.24
2022-10-13T16:54:54.924Z,20.35
2022-10-13T16:57:22.954Z,21.40
2022-10-13T16:59:52.112Z,21.00
2022-10-13T17:02:20.067Z,20.77
2022-10-13T17:04:47.939Z,20.25
2022-10-13T17:07:16.023Z,20.05
2022-10-13T17:09:44.219Z,20.42
2022-10-13T17:12:12.180Z,20.81
2022-10-13T17:14:40.129Z,21.11
2022-10-13T17:17:08.967Z,21.50
2022-10-13T17:19:36.843Z,20.67
2022-10-13T17:22:04.771Z,21.60
2022-10-13T17:24:32.747Z,24.27
2022-10-13T17:27:00.647Z,21.05
2022-10-13T17:29:28.625Z,22.33
2022-10-13T17:31:56.923Z,23.23
2022-10-13T17:34:24.903Z,23.38
2022-10-13T17:36:52.870Z,23.42
2022-10-13T17:39:20.890Z,22.82
2022-10-13T17:41:48.880Z,23.10
2022-10-13T17:44:20.650Z,23.31
2022-10-13T17:46:50.081Z,24.13
2022-10-13T17:49:18.097Z,25.93
2022-10-13T17:51:46.598Z,26.27
2022-10-13T17:54:16.638Z,26.77
2022-10-13T17:56:45.936Z,28.55
2022-10-13T17:59:17.766Z,35.91
2022-10-13T18:01:46.160Z,26.83
2022-10-13T18:04:16.781Z,27.29
2022-10-13T18:06:45.702Z,24.87
2022-10-13T18:09:17.873Z,25.28
2022-10-13T18:11:50.647Z,23.83
2022-10-13T18:14:21.281Z,29.47
2022-10-13T18:16:51.603Z,37.43
2022-10-13T18:19:21.259Z,31.88
2022-10-13T18:21:50.289Z,26.35
2022-10-13T18:24:18.214Z,24.32
2022-10-13T18:26:46.652Z,23.76
2022-10-13T18:29:14.622Z,23.96
2022-10-13T18:31:43.070Z,23.33
2022-10-13T18:34:13.987Z,24.73
2022-10-13T18:36:44.493Z,26.07
2022-10-13T18:39:18.099Z,29.95
2022-10-13T18:41:50.302Z,27.18
2022-10-13T18:44:19.398Z,26.62
2022-10-13T18:46:51.808Z,25.04
2022-10-13T18:49:23.050Z,24.81
2022-10-13T18:51:52.000Z,24.94
2022-10-13T18:54:19.932Z,24.73
2022-10-13T18:56:48.049Z,24.42
2022-10-13T18:59:16.896Z,24.05
2022-10-13T19:01:45.473Z,24.55
2022-10-13T19:04:15.818Z,24.37
2022-10-13T19:06:46.554Z,24.23
2022-10-13T19:09:17.534Z,24.80
2022-10-13T19:11:45.629Z,25.21
2022-10-13T19:14:17.261Z,25.82
2022-10-13T19:16:45.294Z,26.71
2022-10-13T19:19:13.892Z,26.04
2022-10-13T19:21:42.217Z,25.45
2022-10-13T19:24:10.752Z,26.86
2022-10-13T19:26:38.998Z,27.99
2022-10-13T19:29:10.183Z,25.82
2022-10-13T19:31:39.871Z,26.69
2022-10-13T19:34:12.315Z,28.00
2022-10-13T19:36:43.327Z,26.65
2022-10-13T19:39:16.053Z,26.41
2022-10-13T19:41:46.047Z,25.70
2022-10-13T19:44:15.902Z,24.77
2022-10-13T19:46:46.128Z,25.12
2022-10-13T19:49:17.319Z,25.15
2022-10-13T19:51:49.907Z,25.10
2022-10-13T19:54:19.588Z,25.03
2022-10-13T19:56:48.936Z,25.13
2022-10-13T19:59:18.465Z,26.29
2022-10-13T20:01:47.224Z,26.04
2022-10-13T20:04:18.646Z,25.64
2022-10-13T20:06:47.943Z,26.30
2022-10-13T20:09:16.523Z,27.70
2022-10-13T20:11:46.469Z,27.54
2022-10-13T20:14:15.162Z,27.07
2022-10-13T20:16:43.285Z,27.31
2022-10-13T20:19:16.549Z,26.26
2022-10-13T20:21:48.020Z,26.60
2022-10-13T20:24:16.084Z,26.27
2022-10-13T20:26:43.991Z,25.12
2022-10-13T20:29:12.094Z,26.14
2022-10-13T20:31:40.234Z,25.45
2022-10-13T20:34:10.270Z,26.38
2022-10-13T20:36:39.190Z,26.23
2022-10-13T20:39:09.052Z,26.66
2022-10-13T20:41:37.181Z,26.05
2022-10-13T20:44:05.212Z,26.55
2022-10-13T20:46:34.480Z,25.71
2022-10-13T20:49:11.333Z,26.87
2022-10-13T20:51:41.479Z,26.82
2022-10-13T20:54:13.924Z,26.26
2022-10-13T20:56:42.147Z,27.01
2022-10-13T20:59:14.582Z,26.92
2022-10-13T21:01:42.814Z,26.35
2022-10-13T21:04:11.386Z,26.54
2022-10-13T21:06:40.671Z,25.86
2022-10-13T21:09:09.532Z,26.32
2022-10-13T21:11:40.066Z,25.95
2022-10-13T21:14:09.645Z,25.86
2022-10-13T21:16:38.375Z,26.49
2022-10-13T21:19:09.828Z,26.60
2022-10-13T21:21:38.094Z,27.54
2022-10-13T21:24:07.719Z,27.70
2022-10-13T21:26:36.382Z,27.01
2022-10-13T21:29:04.767Z,27.46
2022-10-13T21:31:35.966Z,28.64
2022-10-13T21:34:04.267Z,28.41
2022-10-13T21:36:34.031Z,27.97
2022-10-13T21:39:04.608Z,27.34
2022-10-13T21:41:33.952Z,27.92
2022-10-13T21:44:02.103Z,27.17
2022-10-13T21:46:33.496Z,27.76
2022-10-13T21:49:04.493Z,27.84
2022-10-13T21:51:35.617Z,27.45
2022-10-13T21:54:06.614Z,26.60
2022-10-13T21:56:36.933Z,26.61
2022-10-13T21:59:06.190Z,25.99
2022-10-13T22:01:34.590Z,26.74
2022-10-13T22:04:13.111Z,27.17
2022-10-13T22:06:42.881Z,27.30
2022-10-13T22:09:11.329Z,27.23
2022-10-13T22:11:40.767Z,27.40
2022-10-13T22:14:11.986Z,27.90
2022-10-13T22:16:46.475Z,28.18
2022-10-13T22:19:17.014Z,27.17
2022-10-13T22:21:49.734Z,27.76
2022-10-13T22:24:20.243Z,27.28
2022-10-13T22:26:50.041Z,27.36
2022-10-13T22:29:21.589Z,28.04
2022-10-13T22:31:51.397Z,27.54
2022-10-13T22:34:20.046Z,27.22
2022-10-13T22:36:48.445Z,27.63
2022-10-13T22:39:16.917Z,27.83
2022-10-13T22:41:45.043Z,27.99
2022-10-13T22:44:13.753Z,28.19
2022-10-13T22:46:41.883Z,28.01
2022-10-13T22:49:14.802Z,27.97
2022-10-13T22:51:43.263Z,28.22
2022-10-13T22:54:11.179Z,27.61
2022-10-13T22:56:40.658Z,27.79
2022-10-13T22:59:09.317Z,28.30
2022-10-13T23:01:37.412Z,28.08
2022-10-13T23:04:05.926Z,28.00
2022-10-13T23:06:35.403Z,28.13
2022-10-13T23:09:06.563Z,28.16
2022-10-13T23:11:34.610Z,27.51
2022-10-13T23:14:04.184Z,28.45
2022-10-13T23:16:33.713Z,28.72
2022-10-13T23:19:01.825Z,27.40
2022-10-13T23:21:31.631Z,27.95
2022-10-13T23:24:02.390Z,27.17
2022-10-13T23:26:31.642Z,28.31
2022-10-13T23:29:00.051Z,28.36
2022-10-13T23:31:28.577Z,28.36
2022-10-13T23:33:57.203Z,28.67
2022-10-13T23:36:28.292Z,28.48
2022-10-13T23:39:05.990Z,28.52
2022-10-13T23:41:34.193Z,28.73
2022-10-13T23:44:02.334Z,28.61
2022-10-13T23:46:30.524Z,28.78
2022-10-13T23:48:58.487Z,28.92
2022-10-13T23:51:26.855Z,28.76
2022-10-13T23:53:55.761Z,29.94
2022-10-13T23:56:24.106Z,29.36
2022-10-13T23:58:52.060Z,29.46
